sensor_id;sensor_type;location;lat;lon;timestamp;temperature;humidity
6986;DHT22;3533;51.246;6.850;2023-05-20T00:00:36;20.10;42.30
6986;DHT22;3533;51.246;6.850;2023-05-20T00:03:01;20.10;42.30
6986;DHT22;3533;51.246;6.850;2023-05-20T00:05:27;20.10;42.30
6986;DHT22;3533;51.246;6.850;2023-05-20T00:07:52;20.10;42.30
6986;DHT22;3533;51.246;6.850;2023-05-20T00:10:18;20.10;42.30
6986;DHT22;3533;51.246;6.850;2023-05-20T00:12:43;20.10;42.30
6986;DHT22;3533;51.246;6.850;2023-05-20T00:15:09;20.10;42.30
6986;DHT22;3533;51.246;6.850;2023-05-20T00:17:38;20.10;42.30
6986;DHT22;3533;51.246;6.850;2023-05-20T00:20:04;20.10;42.30
6986;DHT22;3533;51.246;6.850;2023-05-20T00:22:30;20.10;42.30
6986;DHT22;3533;51.246;6.850;2023-05-20T00:24:56;20.10;42.30
6986;DHT22;3533;51.246;6.850;2023-05-20T00:27:22;20.10;42.40
6986;DHT22;3533;51.246;6.850;2023-05-20T00:29:47;20.10;42.40
6986;DHT22;3533;51.246;6.850;2023-05-20T00:32:13;20.10;42.40
6986;DHT22;3533;51.246;6.850;2023-05-20T00:34:38;20.10;42.40
6986;DHT22;3533;51.246;6.850;2023-05-20T00:37:04;20.10;42.40
6986;DHT22;3533;51.246;6.850;2023-05-20T00:39:30;20.10;42.50
6986;DHT22;3533;51.246;6.850;2023-05-20T00:41:56;20.10;42.40
6986;DHT22;3533;51.246;6.850;2023-05-20T00:44:25;20.10;42.50
6986;DHT22;3533;51.246;6.850;2023-05-20T00:46:51;20.10;42.50
6986;DHT22;3533;51.246;6.850;2023-05-20T00:49:17;20.10;42.50
6986;DHT22;3533;51.246;6.850;2023-05-20T00:51:43;20.10;42.50
6986;DHT22;3533;51.246;6.850;2023-05-20T00:54:09;20.10;42.50
6986;DHT22;3533;51.246;6.850;2023-05-20T00:56:35;20.10;42.50
6986;DHT22;3533;51.246;6.850;2023-05-20T00:59:01;20.10;42.50
6986;DHT22;3533;51.246;6.850;2023-05-20T01:01:27;20.10;42.50
6986;DHT22;3533;51.246;6.850;2023-05-20T01:03:52;20.10;42.50
6986;DHT22;3533;51.246;6.850;2023-05-20T01:06:18;20.10;42.50
6986;DHT22;3533;51.246;6.850;2023-05-20T01:08:43;20.10;42.50
6986;DHT22;3533;51.246;6.850;2023-05-20T01:11:27;20.10;42.50
6986;DHT22;3533;51.246;6.850;2023-05-20T01:14:02;20.10;42.50
6986;DHT22;3533;51.246;6.850;2023-05-20T01:16:31;20.10;42.50
6986;DHT22;3533;51.246;6.850;2023-05-20T01:18:58;20.10;42.60
6986;DHT22;3533;51.246;6.850;2023-05-20T01:21:26;20.10;42.60
6986;DHT22;3533;51.246;6.850;2023-05-20T01:23:53;20.10;42.60
6986;DHT22;3533;51.246;6.850;2023-05-20T01:26:19;20.10;42.60
6986;DHT22;3533;51.246;6.850;2023-05-20T01:28:46;20.10;42.60
6986;DHT22;3533;51.246;6.850;2023-05-20T01:31:17;20.10;42.60
6986;DHT22;3533;51.246;6.850;2023-05-20T01:33:44;20.10;42.60
6986;DHT22;3533;51.246;6.850;2023-05-20T01:36:11;20.10;42.60
6986;DHT22;3533;51.246;6.850;2023-05-20T01:38:38;20.10;42.60
6986;DHT22;3533;51.246;6.850;2023-05-20T01:41:04;20.10;42.60
6986;DHT22;3533;51.246;6.850;2023-05-20T01:43:31;20.10;42.60
6986;DHT22;3533;51.246;6.850;2023-05-20T01:45:56;20.10;42.60
6986;DHT22;3533;51.246;6.850;2023-05-20T01:48:22;20.10;42.60
6986;DHT22;3533;51.246;6.850;2023-05-20T01:50:47;20.10;42.60
6986;DHT22;3533;51.246;6.850;2023-05-20T01:53:13;20.10;42.70
6986;DHT22;3533;51.246;6.850;2023-05-20T01:55:39;20.10;42.70
6986;DHT22;3533;51.246;6.850;2023-05-20T01:58:04;20.10;42.70
6986;DHT22;3533;51.246;6.850;2023-05-20T02:00:32;20.10;42.60
6986;DHT22;3533;51.246;6.850;2023-05-20T02:02:58;20.10;42.60
6986;DHT22;3533;51.246;6.850;2023-05-20T02:05:24;20.10;42.70
6986;DHT22;3533;51.246;6.850;2023-05-20T02:07:49;20.10;42.70
6986;DHT22;3533;51.246;6.850;2023-05-20T02:10:15;20.10;42.70
6986;DHT22;3533;51.246;6.850;2023-05-20T02:12:41;20.10;42.70
6986;DHT22;3533;51.246;6.850;2023-05-20T02:15:07;20.10;42.70
6986;DHT22;3533;51.246;6.850;2023-05-20T02:17:33;20.10;42.70
6986;DHT22;3533;51.246;6.850;2023-05-20T02:19:58;20.10;42.70
6986;DHT22;3533;51.246;6.850;2023-05-20T02:22:24;20.10;42.70
6986;DHT22;3533;51.246;6.850;2023-05-20T02:24:49;20.10;42.70
6986;DHT22;3533;51.246;6.850;2023-05-20T02:27:15;20.00;42.60
6986;DHT22;3533;51.246;6.850;2023-05-20T02:29:42;20.10;42.70
6986;DHT22;3533;51.246;6.850;2023-05-20T02:32:08;20.10;42.70
6986;DHT22;3533;51.246;6.850;2023-05-20T02:34:34;20.10;42.70
6986;DHT22;3533;51.246;6.850;2023-05-20T02:36:59;20.10;43.50
6986;DHT22;3533;51.246;6.850;2023-05-20T02:39:25;20.10;42.70
6986;DHT22;3533;51.246;6.850;2023-05-20T02:41:52;20.10;42.80
6986;DHT22;3533;51.246;6.850;2023-05-20T02:44:18;20.10;42.90
6986;DHT22;3533;51.246;6.850;2023-05-20T02:46:43;20.10;42.80
6986;DHT22;3533;51.246;6.850;2023-05-20T02:49:09;20.10;42.70
6986;DHT22;3533;51.246;6.850;2023-05-20T02:51:35;20.10;42.70
6986;DHT22;3533;51.246;6.850;2023-05-20T02:54:01;20.10;42.80
6986;DHT22;3533;51.246;6.850;2023-05-20T02:56:26;20.10;42.70
6986;DHT22;3533;51.246;6.850;2023-05-20T02:58:53;20.10;42.70
6986;DHT22;3533;51.246;6.850;2023-05-20T03:01:18;20.00;42.60
6986;DHT22;3533;51.246;6.850;2023-05-20T03:03:44;20.10;42.70
6986;DHT22;3533;51.246;6.850;2023-05-20T03:06:09;20.10;42.80
6986;DHT22;3533;51.246;6.850;2023-05-20T03:08:35;20.00;42.60
6986;DHT22;3533;51.246;6.850;2023-05-20T03:11:00;20.00;42.70
6986;DHT22;3533;51.246;6.850;2023-05-20T03:13:26;20.10;42.70
6986;DHT22;3533;51.246;6.850;2023-05-20T03:15:52;20.10;42.80
6986;DHT22;3533;51.246;6.850;2023-05-20T03:18:17;20.10;42.80
6986;DHT22;3533;51.246;6.850;2023-05-20T03:20:43;20.10;42.80
6986;DHT22;3533;51.246;6.850;2023-05-20T03:23:09;20.10;43.50
6986;DHT22;3533;51.246;6.850;2023-05-20T03:25:35;20.10;42.80
6986;DHT22;3533;51.246;6.850;2023-05-20T03:28:01;20.10;42.80
6986;DHT22;3533;51.246;6.850;2023-05-20T03:30:27;20.10;42.70
6986;DHT22;3533;51.246;6.850;2023-05-20T03:32:54;20.10;42.70
6986;DHT22;3533;51.246;6.850;2023-05-20T03:35:22;20.10;42.80
6986;DHT22;3533;51.246;6.850;2023-05-20T03:37:47;20.10;42.80
6986;DHT22;3533;51.246;6.850;2023-05-20T03:40:13;20.10;42.80
6986;DHT22;3533;51.246;6.850;2023-05-20T03:42:38;20.00;42.70
6986;DHT22;3533;51.246;6.850;2023-05-20T03:45:05;20.00;42.80
6986;DHT22;3533;51.246;6.850;2023-05-20T03:47:31;20.00;42.70
6986;DHT22;3533;51.246;6.850;2023-05-20T03:49:57;20.10;42.80
6986;DHT22;3533;51.246;6.850;2023-05-20T03:52:22;20.00;42.70
6986;DHT22;3533;51.246;6.850;2023-05-20T03:54:48;20.00;42.70
6986;DHT22;3533;51.246;6.850;2023-05-20T03:57:13;20.00;42.70
6986;DHT22;3533;51.246;6.850;2023-05-20T03:59:39;20.00;42.80
6986;DHT22;3533;51.246;6.850;2023-05-20T04:02:05;20.00;42.70
6986;DHT22;3533;51.246;6.850;2023-05-20T04:04:30;20.10;42.80
6986;DHT22;3533;51.246;6.850;2023-05-20T04:06:57;20.00;42.70
6986;DHT22;3533;51.246;6.850;2023-05-20T04:09:25;20.00;42.70
6986;DHT22;3533;51.246;6.850;2023-05-20T04:11:50;20.00;42.70
6986;DHT22;3533;51.246;6.850;2023-05-20T04:14:16;20.00;42.70
6986;DHT22;3533;51.246;6.850;2023-05-20T04:16:42;20.00;42.70
6986;DHT22;3533;51.246;6.850;2023-05-20T04:19:07;20.00;42.70
6986;DHT22;3533;51.246;6.850;2023-05-20T04:21:33;20.00;42.70
6986;DHT22;3533;51.246;6.850;2023-05-20T04:23:59;20.00;42.70
6986;DHT22;3533;51.246;6.850;2023-05-20T04:26:24;20.00;42.70
6986;DHT22;3533;51.246;6.850;2023-05-20T04:28:50;20.00;42.70
6986;DHT22;3533;51.246;6.850;2023-05-20T04:31:16;20.00;42.70
6986;DHT22;3533;51.246;6.850;2023-05-20T04:33:41;20.00;42.70
6986;DHT22;3533;51.246;6.850;2023-05-20T04:36:10;20.00;42.70
6986;DHT22;3533;51.246;6.850;2023-05-20T04:38:36;20.00;42.70
6986;DHT22;3533;51.246;6.850;2023-05-20T04:41:02;20.00;42.70
6986;DHT22;3533;51.246;6.850;2023-05-20T04:43:28;20.00;42.70
6986;DHT22;3533;51.246;6.850;2023-05-20T04:45:58;20.00;42.70
6986;DHT22;3533;51.246;6.850;2023-05-20T04:48:24;20.10;42.80
6986;DHT22;3533;51.246;6.850;2023-05-20T04:50:50;20.10;42.80
6986;DHT22;3533;51.246;6.850;2023-05-20T04:53:19;20.10;42.80
6986;DHT22;3533;51.246;6.850;2023-05-20T04:55:46;20.10;42.80
6986;DHT22;3533;51.246;6.850;2023-05-20T04:58:12;20.00;42.60
6986;DHT22;3533;51.246;6.850;2023-05-20T05:00:45;20.10;42.70
6986;DHT22;3533;51.246;6.850;2023-05-20T05:03:11;20.10;42.70
6986;DHT22;3533;51.246;6.850;2023-05-20T05:05:38;20.10;42.70
6986;DHT22;3533;51.246;6.850;2023-05-20T05:08:07;20.10;42.70
6986;DHT22;3533;51.246;6.850;2023-05-20T05:10:33;20.10;42.70
6986;DHT22;3533;51.246;6.850;2023-05-20T05:12:59;20.10;42.70
6986;DHT22;3533;51.246;6.850;2023-05-20T05:15:25;20.10;42.60
6986;DHT22;3533;51.246;6.850;2023-05-20T05:17:51;20.00;42.60
6986;DHT22;3533;51.246;6.850;2023-05-20T05:20:17;20.10;42.70
6986;DHT22;3533;51.246;6.850;2023-05-20T05:22:43;20.10;42.70
6986;DHT22;3533;51.246;6.850;2023-05-20T05:25:09;20.10;42.60
6986;DHT22;3533;51.246;6.850;2023-05-20T05:27:35;20.10;42.60
6986;DHT22;3533;51.246;6.850;2023-05-20T05:30:01;20.10;42.60
6986;DHT22;3533;51.246;6.850;2023-05-20T05:32:27;20.10;42.60
6986;DHT22;3533;51.246;6.850;2023-05-20T05:34:53;20.10;42.70
6986;DHT22;3533;51.246;6.850;2023-05-20T05:37:18;20.10;42.60
6986;DHT22;3533;51.246;6.850;2023-05-20T05:39:44;20.10;42.60
6986;DHT22;3533;51.246;6.850;2023-05-20T05:42:10;20.10;42.60
6986;DHT22;3533;51.246;6.850;2023-05-20T05:44:35;20.10;42.60
6986;DHT22;3533;51.246;6.850;2023-05-20T05:47:01;20.10;42.60
6986;DHT22;3533;51.246;6.850;2023-05-20T05:49:26;20.10;42.60
6986;DHT22;3533;51.246;6.850;2023-05-20T05:51:52;20.10;42.60
6986;DHT22;3533;51.246;6.850;2023-05-20T05:54:17;20.10;42.50
6986;DHT22;3533;51.246;6.850;2023-05-20T05:56:45;20.10;42.60
6986;DHT22;3533;51.246;6.850;2023-05-20T05:59:11;20.10;42.50
6986;DHT22;3533;51.246;6.850;2023-05-20T06:01:36;20.10;42.50
6986;DHT22;3533;51.246;6.850;2023-05-20T06:04:02;20.10;42.60
6986;DHT22;3533;51.246;6.850;2023-05-20T06:06:27;20.10;42.50
6986;DHT22;3533;51.246;6.850;2023-05-20T06:08:53;20.10;42.50
6986;DHT22;3533;51.246;6.850;2023-05-20T06:11:20;20.10;43.20
6986;DHT22;3533;51.246;6.850;2023-05-20T06:13:46;20.10;42.60
6986;DHT22;3533;51.246;6.850;2023-05-20T06:16:11;20.10;42.50
6986;DHT22;3533;51.246;6.850;2023-05-20T06:18:37;20.10;42.50
6986;DHT22;3533;51.246;6.850;2023-05-20T06:21:03;20.10;42.50
6986;DHT22;3533;51.246;6.850;2023-05-20T06:23:28;20.10;42.50
6986;DHT22;3533;51.246;6.850;2023-05-20T06:25:57;20.10;42.50
6986;DHT22;3533;51.246;6.850;2023-05-20T06:28:23;20.10;42.50
6986;DHT22;3533;51.246;6.850;2023-05-20T06:30:49;20.20;42.60
6986;DHT22;3533;51.246;6.850;2023-05-20T06:33:15;20.10;42.50
6986;DHT22;3533;51.246;6.850;2023-05-20T06:35:42;20.10;42.50
6986;DHT22;3533;51.246;6.850;2023-05-20T06:38:07;20.10;42.50
6986;DHT22;3533;51.246;6.850;2023-05-20T06:40:33;20.20;42.60
6986;DHT22;3533;51.246;6.850;2023-05-20T06:42:58;20.20;42.60
6986;DHT22;3533;51.246;6.850;2023-05-20T06:45:24;20.10;42.50
6986;DHT22;3533;51.246;6.850;2023-05-20T06:47:50;20.20;42.60
6986;DHT22;3533;51.246;6.850;2023-05-20T06:50:17;20.20;42.60
6986;DHT22;3533;51.246;6.850;2023-05-20T06:52:43;20.20;42.60
6986;DHT22;3533;51.246;6.850;2023-05-20T06:55:09;20.20;42.70
6986;DHT22;3533;51.246;6.850;2023-05-20T06:57:34;20.20;42.60
6986;DHT22;3533;51.246;6.850;2023-05-20T07:00:00;20.20;42.60
6986;DHT22;3533;51.246;6.850;2023-05-20T07:02:26;20.20;42.60
6986;DHT22;3533;51.246;6.850;2023-05-20T07:04:51;20.20;42.70
6986;DHT22;3533;51.246;6.850;2023-05-20T07:07:17;20.20;42.60
6986;DHT22;3533;51.246;6.850;2023-05-20T07:09:42;20.20;42.60
6986;DHT22;3533;51.246;6.850;2023-05-20T07:12:08;20.20;42.60
6986;DHT22;3533;51.246;6.850;2023-05-20T07:14:33;20.20;42.60
6986;DHT22;3533;51.246;6.850;2023-05-20T07:16:59;20.20;42.70
6986;DHT22;3533;51.246;6.850;2023-05-20T07:19:24;20.20;42.60
6986;DHT22;3533;51.246;6.850;2023-05-20T07:21:50;20.20;42.60
6986;DHT22;3533;51.246;6.850;2023-05-20T07:24:16;20.20;42.70
6986;DHT22;3533;51.246;6.850;2023-05-20T07:26:42;20.20;42.60
6986;DHT22;3533;51.246;6.850;2023-05-20T07:29:08;20.20;42.60
6986;DHT22;3533;51.246;6.850;2023-05-20T07:31:34;20.20;42.60
6986;DHT22;3533;51.246;6.850;2023-05-20T07:34:00;20.20;42.60
6986;DHT22;3533;51.246;6.850;2023-05-20T07:36:26;20.20;43.30
6986;DHT22;3533;51.246;6.850;2023-05-20T07:38:52;20.20;42.60
6986;DHT22;3533;51.246;6.850;2023-05-20T07:41:18;20.20;42.60
6986;DHT22;3533;51.246;6.850;2023-05-20T07:43:44;20.20;42.60
6986;DHT22;3533;51.246;6.850;2023-05-20T07:46:10;20.20;42.60
6986;DHT22;3533;51.246;6.850;2023-05-20T07:48:35;20.20;42.60
6986;DHT22;3533;51.246;6.850;2023-05-20T07:51:01;20.30;42.70
6986;DHT22;3533;51.246;6.850;2023-05-20T07:53:26;20.20;42.60
6986;DHT22;3533;51.246;6.850;2023-05-20T07:55:52;20.30;42.70
6986;DHT22;3533;51.246;6.850;2023-05-20T07:58:18;20.30;42.70
6986;DHT22;3533;51.246;6.850;2023-05-20T08:00:43;20.20;42.60
6986;DHT22;3533;51.246;6.850;2023-05-20T08:03:09;20.30;42.70
6986;DHT22;3533;51.246;6.850;2023-05-20T08:05:37;20.20;42.70
6986;DHT22;3533;51.246;6.850;2023-05-20T08:08:03;20.20;42.70
6986;DHT22;3533;51.246;6.850;2023-05-20T08:10:29;20.30;42.70
6986;DHT22;3533;51.246;6.850;2023-05-20T08:12:56;20.20;42.60
6986;DHT22;3533;51.246;6.850;2023-05-20T08:15:21;20.30;42.70
6986;DHT22;3533;51.246;6.850;2023-05-20T08:17:47;20.30;42.80
6986;DHT22;3533;51.246;6.850;2023-05-20T08:20:12;20.30;42.70
6986;DHT22;3533;51.246;6.850;2023-05-20T08:22:39;20.30;42.80
6986;DHT22;3533;51.246;6.850;2023-05-20T08:25:07;20.30;42.80
6986;DHT22;3533;51.246;6.850;2023-05-20T08:27:33;20.30;42.80
6986;DHT22;3533;51.246;6.850;2023-05-20T08:29:59;20.30;42.80
6986;DHT22;3533;51.246;6.850;2023-05-20T08:32:25;20.30;42.80
6986;DHT22;3533;51.246;6.850;2023-05-20T08:34:50;20.30;42.90
6986;DHT22;3533;51.246;6.850;2023-05-20T08:37:16;20.30;42.90
6986;DHT22;3533;51.246;6.850;2023-05-20T08:39:41;20.30;43.00
6986;DHT22;3533;51.246;6.850;2023-05-20T08:42:08;20.30;43.00
6986;DHT22;3533;51.246;6.850;2023-05-20T08:44:35;20.30;43.00
6986;DHT22;3533;51.246;6.850;2023-05-20T08:47:02;20.30;43.00
6986;DHT22;3533;51.246;6.850;2023-05-20T08:49:28;20.30;43.10
6986;DHT22;3533;51.246;6.850;2023-05-20T08:51:55;20.30;43.10
6986;DHT22;3533;51.246;6.850;2023-05-20T08:54:21;20.30;43.10
6986;DHT22;3533;51.246;6.850;2023-05-20T08:56:48;20.30;43.10
6986;DHT22;3533;51.246;6.850;2023-05-20T08:59:14;20.30;43.10
6986;DHT22;3533;51.246;6.850;2023-05-20T09:01:43;20.30;43.10
6986;DHT22;3533;51.246;6.850;2023-05-20T09:04:08;20.30;43.20
6986;DHT22;3533;51.246;6.850;2023-05-20T09:06:44;20.30;43.20
6986;DHT22;3533;51.246;6.850;2023-05-20T09:09:12;20.30;43.20
6986;DHT22;3533;51.246;6.850;2023-05-20T09:11:39;20.30;43.20
6986;DHT22;3533;51.246;6.850;2023-05-20T09:14:05;20.30;43.50
6986;DHT22;3533;51.246;6.850;2023-05-20T09:16:31;20.30;43.20
6986;DHT22;3533;51.246;6.850;2023-05-20T09:18:57;20.40;44.00
6986;DHT22;3533;51.246;6.850;2023-05-20T09:21:29;20.40;43.30
6986;DHT22;3533;51.246;6.850;2023-05-20T09:23:55;20.40;43.30
6986;DHT22;3533;51.246;6.850;2023-05-20T09:26:28;20.40;43.30
6986;DHT22;3533;51.246;6.850;2023-05-20T09:28:57;20.40;43.30
6986;DHT22;3533;51.246;6.850;2023-05-20T09:31:41;20.40;43.40
6986;DHT22;3533;51.246;6.850;2023-05-20T09:34:06;20.30;43.30
6986;DHT22;3533;51.246;6.850;2023-05-20T09:36:34;20.30;43.30
6986;DHT22;3533;51.246;6.850;2023-05-20T09:39:02;20.40;43.30
6986;DHT22;3533;51.246;6.850;2023-05-20T09:41:37;20.40;43.40
6986;DHT22;3533;51.246;6.850;2023-05-20T09:44:04;20.40;43.40
6986;DHT22;3533;51.246;6.850;2023-05-20T09:46:32;20.40;43.50
6986;DHT22;3533;51.246;6.850;2023-05-20T09:48:58;20.40;43.50
6986;DHT22;3533;51.246;6.850;2023-05-20T09:51:24;20.40;43.50
6986;DHT22;3533;51.246;6.850;2023-05-20T09:53:50;20.40;43.50
6986;DHT22;3533;51.246;6.850;2023-05-20T09:56:19;20.40;43.50
6986;DHT22;3533;51.246;6.850;2023-05-20T09:58:46;20.40;43.50
6986;DHT22;3533;51.246;6.850;2023-05-20T10:01:13;20.40;43.50
6986;DHT22;3533;51.246;6.850;2023-05-20T10:03:39;20.40;43.50
6986;DHT22;3533;51.246;6.850;2023-05-20T10:11:59;20.40;43.50
6986;DHT22;3533;51.246;6.850;2023-05-20T10:17:15;20.40;43.50
6986;DHT22;3533;51.246;6.850;2023-05-20T10:19:41;20.40;43.50
6986;DHT22;3533;51.246;6.850;2023-05-20T10:22:09;20.40;43.50
6986;DHT22;3533;51.246;6.850;2023-05-20T10:24:36;20.40;43.60
6986;DHT22;3533;51.246;6.850;2023-05-20T10:27:06;20.40;43.50
6986;DHT22;3533;51.246;6.850;2023-05-20T10:32:21;20.50;43.60
6986;DHT22;3533;51.246;6.850;2023-05-20T10:34:49;20.50;43.70
6986;DHT22;3533;51.246;6.850;2023-05-20T10:37:28;20.50;43.60
6986;DHT22;3533;51.246;6.850;2023-05-20T10:40:11;20.40;43.50
6986;DHT22;3533;51.246;6.850;2023-05-20T10:42:37;20.40;43.50
6986;DHT22;3533;51.246;6.850;2023-05-20T10:45:03;20.50;43.60
6986;DHT22;3533;51.246;6.850;2023-05-20T10:47:30;20.50;43.60
6986;DHT22;3533;51.246;6.850;2023-05-20T10:49:56;20.50;43.60
6986;DHT22;3533;51.246;6.850;2023-05-20T10:52:23;20.50;43.60
6986;DHT22;3533;51.246;6.850;2023-05-20T10:54:58;20.50;43.60
6986;DHT22;3533;51.246;6.850;2023-05-20T10:57:26;20.50;43.60
6986;DHT22;3533;51.246;6.850;2023-05-20T10:59:51;20.50;43.50
6986;DHT22;3533;51.246;6.850;2023-05-20T11:02:18;20.50;43.60
6986;DHT22;3533;51.246;6.850;2023-05-20T11:04:45;20.50;43.60
6986;DHT22;3533;51.246;6.850;2023-05-20T11:07:24;20.50;43.60
6986;DHT22;3533;51.246;6.850;2023-05-20T11:09:49;20.50;43.50
6986;DHT22;3533;51.246;6.850;2023-05-20T11:12:15;20.50;43.60
6986;DHT22;3533;51.246;6.850;2023-05-20T11:14:41;20.50;43.60
6986;DHT22;3533;51.246;6.850;2023-05-20T11:17:06;20.50;44.30
6986;DHT22;3533;51.246;6.850;2023-05-20T11:19:32;20.50;43.50
6986;DHT22;3533;51.246;6.850;2023-05-20T11:21:57;20.50;43.50
6986;DHT22;3533;51.246;6.850;2023-05-20T11:24:24;20.50;43.50
6986;DHT22;3533;51.246;6.850;2023-05-20T11:26:54;20.50;43.60
6986;DHT22;3533;51.246;6.850;2023-05-20T11:29:20;20.50;43.60
6986;DHT22;3533;51.246;6.850;2023-05-20T11:31:50;20.50;43.50
6986;DHT22;3533;51.246;6.850;2023-05-20T11:34:19;20.50;43.60
6986;DHT22;3533;51.246;6.850;2023-05-20T11:36:44;20.50;43.60
6986;DHT22;3533;51.246;6.850;2023-05-20T11:39:13;20.50;43.60
6986;DHT22;3533;51.246;6.850;2023-05-20T11:41:40;20.50;43.60
6986;DHT22;3533;51.246;6.850;2023-05-20T11:44:09;20.50;43.60
6986;DHT22;3533;51.246;6.850;2023-05-20T11:46:42;20.50;43.60
6986;DHT22;3533;51.246;6.850;2023-05-20T11:49:09;20.50;43.60
6986;DHT22;3533;51.246;6.850;2023-05-20T11:51:36;20.50;43.60
6986;DHT22;3533;51.246;6.850;2023-05-20T11:54:03;20.50;43.60
6986;DHT22;3533;51.246;6.850;2023-05-20T11:56:32;20.50;43.60
6986;DHT22;3533;51.246;6.850;2023-05-20T11:58:59;20.50;43.60
6986;DHT22;3533;51.246;6.850;2023-05-20T12:01:26;20.50;43.50
6986;DHT22;3533;51.246;6.850;2023-05-20T12:03:54;20.50;43.60
6986;DHT22;3533;51.246;6.850;2023-05-20T12:06:20;20.50;43.50
6986;DHT22;3533;51.246;6.850;2023-05-20T12:08:46;20.40;43.30
6986;DHT22;3533;51.246;6.850;2023-05-20T12:11:12;20.50;43.50
6986;DHT22;3533;51.246;6.850;2023-05-20T12:13:38;20.50;43.50
6986;DHT22;3533;51.246;6.850;2023-05-20T12:16:05;20.50;43.40
6986;DHT22;3533;51.246;6.850;2023-05-20T12:18:31;20.50;43.40
6986;DHT22;3533;51.246;6.850;2023-05-20T12:20:57;20.50;43.40
6986;DHT22;3533;51.246;6.850;2023-05-20T12:23:23;20.50;43.40
6986;DHT22;3533;51.246;6.850;2023-05-20T12:25:49;20.50;43.30
6986;DHT22;3533;51.246;6.850;2023-05-20T12:28:15;20.50;43.30
6986;DHT22;3533;51.246;6.850;2023-05-20T12:30:42;20.50;43.40
6986;DHT22;3533;51.246;6.850;2023-05-20T12:33:08;20.50;43.30
6986;DHT22;3533;51.246;6.850;2023-05-20T12:35:38;20.40;43.20
6986;DHT22;3533;51.246;6.850;2023-05-20T12:38:05;20.50;43.20
6986;DHT22;3533;51.246;6.850;2023-05-20T12:40:31;20.50;43.10
6986;DHT22;3533;51.246;6.850;2023-05-20T12:42:57;20.50;43.00
6986;DHT22;3533;51.246;6.850;2023-05-20T12:45:23;20.50;43.00
6986;DHT22;3533;51.246;6.850;2023-05-20T12:47:49;20.50;43.10
6986;DHT22;3533;51.246;6.850;2023-05-20T12:50:14;20.50;43.10
6986;DHT22;3533;51.246;6.850;2023-05-20T12:52:40;20.50;43.90
6986;DHT22;3533;51.246;6.850;2023-05-20T12:55:06;20.50;43.10
6986;DHT22;3533;51.246;6.850;2023-05-20T12:57:44;20.50;43.20
6986;DHT22;3533;51.246;6.850;2023-05-20T13:00:11;20.50;43.20
6986;DHT22;3533;51.246;6.850;2023-05-20T13:02:37;20.50;44.00
6986;DHT22;3533;51.246;6.850;2023-05-20T13:05:03;20.50;43.20
6986;DHT22;3533;51.246;6.850;2023-05-20T13:07:29;20.50;43.20
6986;DHT22;3533;51.246;6.850;2023-05-20T13:09:56;20.50;43.20
6986;DHT22;3533;51.246;6.850;2023-05-20T13:12:21;20.50;43.10
6986;DHT22;3533;51.246;6.850;2023-05-20T13:14:47;20.50;43.00
6986;DHT22;3533;51.246;6.850;2023-05-20T13:17:12;20.50;42.90
6986;DHT22;3533;51.246;6.850;2023-05-20T13:19:39;20.50;42.80
6986;DHT22;3533;51.246;6.850;2023-05-20T13:22:04;20.60;42.80
6986;DHT22;3533;51.246;6.850;2023-05-20T13:24:31;20.60;42.80
6986;DHT22;3533;51.246;6.850;2023-05-20T13:26:56;20.60;42.70
6986;DHT22;3533;51.246;6.850;2023-05-20T13:29:22;20.60;42.70
6986;DHT22;3533;51.246;6.850;2023-05-20T13:31:47;20.60;42.80
6986;DHT22;3533;51.246;6.850;2023-05-20T13:34:13;20.60;42.80
6986;DHT22;3533;51.246;6.850;2023-05-20T13:36:39;20.60;42.80
6986;DHT22;3533;51.246;6.850;2023-05-20T13:39:05;20.60;43.00
6986;DHT22;3533;51.246;6.850;2023-05-20T13:41:31;20.50;42.90
6986;DHT22;3533;51.246;6.850;2023-05-20T13:43:56;20.50;43.10
6986;DHT22;3533;51.246;6.850;2023-05-20T13:46:22;20.50;43.10
6986;DHT22;3533;51.246;6.850;2023-05-20T13:48:48;20.50;43.10
6986;DHT22;3533;51.246;6.850;2023-05-20T13:51:13;20.50;43.20
6986;DHT22;3533;51.246;6.850;2023-05-20T13:53:39;20.50;43.20
6986;DHT22;3533;51.246;6.850;2023-05-20T13:56:05;20.50;43.20
6986;DHT22;3533;51.246;6.850;2023-05-20T13:58:36;20.40;43.20
6986;DHT22;3533;51.246;6.850;2023-05-20T14:01:02;20.50;43.30
6986;DHT22;3533;51.246;6.850;2023-05-20T14:03:31;20.50;43.30
6986;DHT22;3533;51.246;6.850;2023-05-20T14:05:58;20.50;43.30
6986;DHT22;3533;51.246;6.850;2023-05-20T14:08:24;20.50;43.50
6986;DHT22;3533;51.246;6.850;2023-05-20T14:10:50;20.50;43.50
6986;DHT22;3533;51.246;6.850;2023-05-20T14:13:20;20.50;43.40
6986;DHT22;3533;51.246;6.850;2023-05-20T14:15:45;20.50;43.50
6986;DHT22;3533;51.246;6.850;2023-05-20T14:18:11;20.50;43.50
6986;DHT22;3533;51.246;6.850;2023-05-20T14:20:37;20.50;43.50
6986;DHT22;3533;51.246;6.850;2023-05-20T14:23:02;20.50;43.50
6986;DHT22;3533;51.246;6.850;2023-05-20T14:25:28;20.40;43.50
6986;DHT22;3533;51.246;6.850;2023-05-20T14:27:53;20.50;43.60
6986;DHT22;3533;51.246;6.850;2023-05-20T14:30:19;20.50;43.60
6986;DHT22;3533;51.246;6.850;2023-05-20T14:32:45;20.40;43.50
6986;DHT22;3533;51.246;6.850;2023-05-20T14:35:10;20.50;43.70
6986;DHT22;3533;51.246;6.850;2023-05-20T14:37:36;20.50;43.70
6986;DHT22;3533;51.246;6.850;2023-05-20T14:40:03;20.50;43.70
6986;DHT22;3533;51.246;6.850;2023-05-20T14:42:29;20.50;43.70
6986;DHT22;3533;51.246;6.850;2023-05-20T14:44:55;20.50;43.80
6986;DHT22;3533;51.246;6.850;2023-05-20T14:47:20;20.50;43.80
6986;DHT22;3533;51.246;6.850;2023-05-20T14:49:47;20.50;43.90
6986;DHT22;3533;51.246;6.850;2023-05-20T14:52:14;20.50;43.90
6986;DHT22;3533;51.246;6.850;2023-05-20T14:54:40;20.50;43.90
6986;DHT22;3533;51.246;6.850;2023-05-20T14:57:06;20.50;43.90
6986;DHT22;3533;51.246;6.850;2023-05-20T14:59:32;20.50;44.00
6986;DHT22;3533;51.246;6.850;2023-05-20T15:01:57;20.50;44.00
6986;DHT22;3533;51.246;6.850;2023-05-20T15:04:23;20.50;44.00
6986;DHT22;3533;51.246;6.850;2023-05-20T15:06:49;20.50;44.00
6986;DHT22;3533;51.246;6.850;2023-05-20T15:09:15;20.50;44.00
6986;DHT22;3533;51.246;6.850;2023-05-20T15:11:41;20.50;44.00
6986;DHT22;3533;51.246;6.850;2023-05-20T15:14:06;20.50;44.00
6986;DHT22;3533;51.246;6.850;2023-05-20T15:16:32;20.50;44.00
6986;DHT22;3533;51.246;6.850;2023-05-20T15:18:57;20.50;44.00
6986;DHT22;3533;51.246;6.850;2023-05-20T15:21:23;20.40;43.90
6986;DHT22;3533;51.246;6.850;2023-05-20T15:23:48;20.50;44.00
6986;DHT22;3533;51.246;6.850;2023-05-20T15:26:14;20.40;44.00
6986;DHT22;3533;51.246;6.850;2023-05-20T15:28:40;20.40;43.90
6986;DHT22;3533;51.246;6.850;2023-05-20T15:31:05;20.40;43.90
6986;DHT22;3533;51.246;6.850;2023-05-20T15:33:31;20.40;43.90
6986;DHT22;3533;51.246;6.850;2023-05-20T15:35:56;20.40;44.00
6986;DHT22;3533;51.246;6.850;2023-05-20T15:38:22;20.40;44.00
6986;DHT22;3533;51.246;6.850;2023-05-20T15:40:47;20.40;44.00
6986;DHT22;3533;51.246;6.850;2023-05-20T15:43:17;20.40;43.90
6986;DHT22;3533;51.246;6.850;2023-05-20T15:45:44;20.40;43.90
6986;DHT22;3533;51.246;6.850;2023-05-20T15:48:10;20.40;43.90
6986;DHT22;3533;51.246;6.850;2023-05-20T15:50:35;20.40;43.90
6986;DHT22;3533;51.246;6.850;2023-05-20T15:53:04;20.40;43.90
6986;DHT22;3533;51.246;6.850;2023-05-20T15:55:29;20.40;43.90
6986;DHT22;3533;51.246;6.850;2023-05-20T15:57:55;20.40;43.90
6986;DHT22;3533;51.246;6.850;2023-05-20T16:00:21;20.40;43.90
6986;DHT22;3533;51.246;6.850;2023-05-20T16:02:46;20.40;43.90
6986;DHT22;3533;51.246;6.850;2023-05-20T16:05:12;20.40;43.90
6986;DHT22;3533;51.246;6.850;2023-05-20T16:07:38;20.40;43.80